createdAt,value
2023-03-28T00:01:02.058Z,98923.04
2023-03-28T00:03:38.892Z,98919.98
2023-03-28T00:06:09.223Z,98920.77
2023-03-28T00:08:38.920Z,98923.20
2023-03-28T00:11:09.549Z,98923.40
2023-03-28T00:13:37.226Z,98920.61
2023-03-28T00:16:08.871Z,98919.06
2023-03-28T00:18:39.290Z,98915.51
2023-03-28T00:21:19.027Z,98915.38
2023-03-28T00:23:46.226Z,98912.79
2023-03-28T00:26:13.167Z,98914.77
2023-03-28T00:28:39.998Z,98914.04
2023-03-28T00:31:09.329Z,98914.76
2023-03-28T00:33:37.618Z,98912.43
2023-03-28T00:36:05.341Z,98910.03
2023-03-28T00:38:34.687Z,98905.23
2023-03-28T00:41:05.330Z,98904.94
2023-03-28T00:43:42.812Z,98903.91
2023-03-28T00:46:36.671Z,98898.86
2023-03-28T00:49:07.375Z,98894.88
2023-03-28T00:51:37.195Z,98890.94
2023-03-28T00:54:05.293Z,98887.52
2023-03-28T00:56:33.878Z,98883.02
2023-03-28T00:59:02.369Z,98877.12
2023-03-28T01:01:29.407Z,98875.73
2023-03-28T01:04:02.590Z,98873.87
2023-03-28T01:06:36.563Z,98869.94
2023-03-28T01:09:06.084Z,98864.32
2023-03-28T01:11:37.871Z,98866.86
2023-03-28T01:14:06.872Z,98857.14
2023-03-28T01:16:40.812Z,98847.36
2023-03-28T01:19:50.257Z,98846.29
2023-03-28T01:22:41.309Z,98846.41
2023-03-28T01:25:42.387Z,98853.95
2023-03-28T01:28:37.021Z,98853.60
2023-03-28T01:31:35.305Z,98850.68
2023-03-28T01:34:42.808Z,98840.58
2023-03-28T01:37:37.933Z,98835.17
2023-03-28T01:40:47.326Z,98825.10
2023-03-28T01:43:35.270Z,98821.02
2023-03-28T01:46:19.236Z,98823.98
2023-03-28T01:48:57.805Z,98816.02
2023-03-28T01:51:29.993Z,98817.39
2023-03-28T01:54:19.436Z,98824.98
2023-03-28T01:57:12.894Z,98824.10
2023-03-28T02:00:11.514Z,98820.39
2023-03-28T02:03:28.287Z,98816.42
2023-03-28T02:06:07.963Z,98812.55
2023-03-28T02:08:37.594Z,98814.29
2023-03-28T02:11:32.112Z,98819.30
2023-03-28T02:14:30.492Z,98821.34
2023-03-28T02:17:16.704Z,98832.52
2023-03-28T02:20:14.234Z,98822.55
2023-03-28T02:23:35.526Z,98811.55
2023-03-28T02:26:29.332Z,98807.29
2023-03-28T02:29:25.164Z,98806.27
2023-03-28T02:32:08.143Z,98792.11
2023-03-28T02:34:35.132Z,98789.89
2023-03-28T02:37:08.729Z,98781.51
2023-03-28T02:39:42.605Z,98780.45
2023-03-28T02:42:37.214Z,98774.54
2023-03-28T02:45:39.440Z,98776.98
2023-03-28T02:48:15.994Z,98769.45
2023-03-28T02:50:48.392Z,98760.17
2023-03-28T02:53:26.742Z,98756.55
2023-03-28T02:56:07.761Z,98757.12
2023-03-28T02:58:57.069Z,98755.34
2023-03-28T03:01:25.030Z,98761.10
2023-03-28T03:03:52.503Z,98758.34
2023-03-28T03:06:26.832Z,98756.00
2023-03-28T03:08:53.906Z,98749.50
2023-03-28T03:11:22.565Z,98753.89
2023-03-28T03:13:51.279Z,98756.11
2023-03-28T03:16:24.493Z,98754.29
2023-03-28T03:18:53.102Z,98763.41
2023-03-28T03:21:31.057Z,98768.02
2023-03-28T03:24:00.537Z,98759.92
2023-03-28T03:26:27.523Z,98757.20
2023-03-28T03:29:08.953Z,98753.28
2023-03-28T03:31:37.706Z,98753.87
2023-03-28T03:34:20.441Z,98754.68
2023-03-28T03:36:55.780Z,98748.09
2023-03-28T03:39:23.604Z,98744.98
2023-03-28T03:41:50.658Z,98744.45
2023-03-28T03:44:17.638Z,98738.48
2023-03-28T03:46:44.469Z,98738.89
2023-03-28T03:49:14.216Z,98729.90
2023-03-28T03:51:41.847Z,98723.67
2023-03-28T03:54:08.749Z,98720.23
2023-03-28T03:56:40.503Z,98724.21
2023-03-28T03:59:08.019Z,98715.60
2023-03-28T04:01:46.252Z,98708.83
2023-03-28T04:04:54.017Z,98702.59
2023-03-28T04:07:24.798Z,98691.63
2023-03-28T04:09:54.964Z,98694.10
2023-03-28T04:12:25.475Z,98693.23
2023-03-28T04:14:54.640Z,98686.64
2023-03-28T04:17:49.638Z,98677.04
2023-03-28T04:20:19.424Z,98682.98
2023-03-28T04:23:05.353Z,98682.23
2023-03-28T04:25:32.689Z,98685.00
2023-03-28T04:28:08.881Z,98681.75
2023-03-28T04:30:44.845Z,98673.58
2023-03-28T04:33:33.372Z,98673.84
2023-03-28T04:36:01.851Z,98676.27
2023-03-28T04:38:32.059Z,98674.23
2023-03-28T04:41:10.242Z,98673.88
2023-03-28T04:43:56.996Z,98673.28
2023-03-28T04:46:24.002Z,98674.00
2023-03-28T04:48:56.258Z,98668.02
2023-03-28T04:51:28.795Z,98665.42
2023-03-28T04:53:56.082Z,98666.25
2023-03-28T04:56:45.068Z,98670.17
2023-03-28T04:59:16.957Z,98668.59
2023-03-28T05:01:50.154Z,98674.48
2023-03-28T05:04:55.211Z,98678.13
2023-03-28T05:07:23.222Z,98675.27
2023-03-28T05:09:50.571Z,98668.90
2023-03-28T05:12:21.467Z,98664.49
2023-03-28T05:14:57.195Z,98663.18
2023-03-28T05:17:32.356Z,98659.93
2023-03-28T05:20:10.604Z,98656.44
2023-03-28T05:22:50.355Z,98643.71
2023-03-28T05:25:17.985Z,98647.52
2023-03-28T05:27:45.285Z,98646.23
2023-03-28T05:30:13.193Z,98639.89
2023-03-28T05:32:40.858Z,98634.15
2023-03-28T05:35:11.008Z,98638.15
2023-03-28T05:37:39.852Z,98628.67
2023-03-28T05:40:10.556Z,98620.23
2023-03-28T05:42:39.840Z,98600.04
2023-03-28T05:45:14.876Z,98593.23
2023-03-28T05:47:45.834Z,98595.59
2023-03-28T05:50:16.957Z,98604.73
2023-03-28T05:52:44.042Z,98592.90
2023-03-28T05:55:10.933Z,98584.26
2023-03-28T05:57:39.160Z,98574.50
2023-03-28T06:00:11.637Z,98574.71
2023-03-28T06:02:46.185Z,98569.55
2023-03-28T06:05:15.708Z,98568.31
2023-03-28T06:07:43.277Z,98567.53
2023-03-28T06:10:13.354Z,98557.30
2023-03-28T06:12:45.422Z,98551.01
2023-03-28T06:15:12.393Z,98544.39
2023-03-28T06:17:40.892Z,98539.21
2023-03-28T06:20:11.899Z,98534.93
2023-03-28T06:22:38.812Z,98534.56
2023-03-28T06:25:08.521Z,98535.88
2023-03-28T06:27:36.233Z,98535.48
2023-03-28T06:30:05.157Z,98533.20
2023-03-28T06:32:37.496Z,98531.09
2023-03-28T06:35:05.826Z,98528.71
2023-03-28T06:37:33.087Z,98523.08
2023-03-28T06:40:08.580Z,98514.73
2023-03-28T06:42:36.325Z,98513.97
2023-03-28T06:45:14.834Z,98514.73
2023-03-28T06:47:50.416Z,98508.01
2023-03-28T06:50:18.048Z,98506.10
2023-03-28T06:52:53.857Z,98503.29
2023-03-28T06:55:25.196Z,98510.63
2023-03-28T06:57:55.208Z,98506.38
2023-03-28T07:00:31.073Z,98500.17
2023-03-28T07:03:16.674Z,98504.70
2023-03-28T07:05:47.162Z,98510.33
2023-03-28T07:08:14.930Z,98509.61
2023-03-28T07:10:42.153Z,98512.98
2023-03-28T07:13:10.564Z,98516.63
2023-03-28T07:15:44.952Z,98516.78
2023-03-28T07:18:11.827Z,98513.92
2023-03-28T07:20:40.119Z,98513.70
2023-03-28T07:23:07.239Z,98513.94
2023-03-28T07:25:34.398Z,98514.16
2023-03-28T07:28:02.095Z,98512.21
2023-03-28T07:30:29.621Z,98512.21
2023-03-28T07:33:04.460Z,98508.30
2023-03-28T07:35:40.329Z,98505.96
2023-03-28T07:38:10.450Z,98507.16
2023-03-28T07:41:03.723Z,98505.38
2023-03-28T07:43:31.329Z,98505.50
2023-03-28T07:46:06.075Z,98510.38
2023-03-28T07:48:37.561Z,98507.06
2023-03-28T07:51:14.407Z,98509.05
2023-03-28T07:53:47.230Z,98503.73
2023-03-28T07:56:21.279Z,98502.21
2023-03-28T07:59:04.531Z,98497.15
2023-03-28T08:01:41.304Z,98493.96
2023-03-28T08:04:30.226Z,98492.55
2023-03-28T08:07:34.374Z,98489.88
2023-03-28T08:10:17.289Z,98485.89
2023-03-28T08:13:14.312Z,98488.70
2023-03-28T08:16:15.324Z,98490.92
2023-03-28T08:19:17.399Z,98492.55
2023-03-28T08:22:54.265Z,98500.00
2023-03-28T08:26:15.366Z,98500.45
2023-03-28T08:29:09.435Z,98501.49
2023-03-28T08:32:01.773Z,98503.44
2023-03-28T08:35:09.317Z,98506.48
2023-03-28T08:38:02.464Z,98507.20
2023-03-28T08:40:45.914Z,98511.11
2023-03-28T08:44:20.278Z,98510.86
2023-03-28T08:47:06.284Z,98512.24
2023-03-28T08:49:42.790Z,98503.56
2023-03-28T08:52:19.279Z,98497.36
2023-03-28T08:55:09.297Z,98502.29
2023-03-28T08:57:45.262Z,98507.73
2023-03-28T09:00:40.292Z,98504.48
2023-03-28T09:03:19.815Z,98501.89
2023-03-28T09:06:03.652Z,98503.22
2023-03-28T09:09:00.544Z,98497.55
2023-03-28T09:11:53.554Z,98491.09
2023-03-28T09:14:46.690Z,98484.49
2023-03-28T09:21:03.064Z,98477.73
2023-03-28T09:23:57.051Z,98472.01
2023-03-28T09:27:17.639Z,98477.73
2023-03-28T09:29:50.702Z,98479.06
2023-03-28T09:32:23.254Z,98479.67
2023-03-28T09:34:55.248Z,98477.13
2023-03-28T09:37:31.230Z,98474.05
2023-03-28T09:40:21.482Z,98474.45
2023-03-28T09:43:25.016Z,98472.45
2023-03-28T09:46:43.289Z,98471.28
2023-03-28T09:49:28.972Z,98469.66
2023-03-28T09:52:21.771Z,98468.94
2023-03-28T09:54:49.320Z,98471.20
2023-03-28T09:57:16.175Z,98471.47
2023-03-28T10:00:07.015Z,98469.80
2023-03-28T10:02:43.088Z,98469.04
2023-03-28T10:05:38.382Z,98467.41
2023-03-28T10:08:34.458Z,98468.00
2023-03-28T10:11:22.261Z,98466.55
2023-03-28T10:13:50.234Z,98464.38
2023-03-28T10:16:28.744Z,98466.39
2023-03-28T10:19:02.452Z,98464.63
2023-03-28T10:21:30.997Z,98457.77
2023-03-28T10:24:15.036Z,98457.34
2023-03-28T10:26:48.347Z,98455.77
2023-03-28T10:29:15.459Z,98454.97
2023-03-28T10:31:47.242Z,98456.12
2023-03-28T10:34:44.289Z,98451.69
2023-03-28T10:37:24.388Z,98451.70
2023-03-28T10:40:27.512Z,98451.09
2023-03-28T10:43:17.028Z,98445.06
2023-03-28T10:46:21.158Z,98443.23
2023-03-28T10:49:16.567Z,98440.71
2023-03-28T10:51:46.833Z,98441.67
2023-03-28T10:54:17.228Z,98438.98
2023-03-28T10:57:08.613Z,98440.85
2023-03-28T10:59:54.478Z,98435.87
2023-03-28T11:02:54.015Z,98434.95
2023-03-28T11:05:40.199Z,98430.59
2023-03-28T11:08:32.682Z,98425.60
2023-03-28T11:11:10.372Z,98422.65
2023-03-28T11:13:57.616Z,98421.95
2023-03-28T11:17:03.169Z,98418.45
2023-03-28T11:20:06.605Z,98416.84
2023-03-28T11:22:45.848Z,98414.29
2023-03-28T11:25:21.600Z,98414.82
2023-03-28T11:28:06.739Z,98406.98
2023-03-28T11:30:37.717Z,98403.97
2023-03-28T11:33:36.184Z,98404.77
2023-03-28T11:36:18.677Z,98403.05
2023-03-28T11:38:51.409Z,98401.42
2023-03-28T11:41:21.588Z,98398.77
2023-03-28T11:44:15.878Z,98397.79
2023-03-28T11:46:46.575Z,98394.05
2023-03-28T11:49:19.916Z,98395.95
2023-03-28T11:52:16.387Z,98391.69
2023-03-28T11:55:23.879Z,98394.80
2023-03-28T11:58:00.922Z,98389.34
2023-03-28T12:00:57.648Z,98385.45
2023-03-28T12:03:33.865Z,98378.71
2023-03-28T12:06:25.641Z,98378.91
2023-03-28T12:08:57.360Z,98382.52
2023-03-28T12:11:31.639Z,98379.82
2023-03-28T12:14:12.662Z,98379.84
2023-03-28T12:16:50.435Z,98374.69
2023-03-28T12:19:36.291Z,98371.45
2023-03-28T12:22:15.129Z,98369.32
2023-03-28T12:24:49.259Z,98369.63
2023-03-28T12:27:45.849Z,98367.21
2023-03-28T12:30:54.516Z,98363.40
2023-03-28T12:33:33.554Z,98364.34
2023-03-28T12:36:34.347Z,98367.54
2023-03-28T12:39:24.319Z,98363.59
2023-03-28T12:41:52.500Z,98360.27
2023-03-28T12:44:25.395Z,98363.90
2023-03-28T12:47:24.193Z,98367.67
2023-03-28T12:49:55.985Z,98362.77
2023-03-28T12:52:28.676Z,98366.38
2023-03-28T12:55:07.401Z,98363.61
2023-03-28T12:57:44.350Z,98366.11
2023-03-28T13:00:49.033Z,98364.67
2023-03-28T13:03:59.839Z,98368.91
2023-03-28T13:07:02.844Z,98373.27
2023-03-28T13:09:32.698Z,98375.77
2023-03-28T13:12:21.325Z,98373.08
2023-03-28T13:15:20.067Z,98370.75
2023-03-28T13:17:48.527Z,98373.96
2023-03-28T13:20:16.010Z,98372.58
2023-03-28T13:22:53.247Z,98374.58
2023-03-28T13:25:36.642Z,98378.10
2023-03-28T13:28:13.193Z,98379.52
2023-03-28T13:30:41.882Z,98382.25
2023-03-28T13:33:47.209Z,98379.93
2023-03-28T13:36:18.902Z,98381.63
2023-03-28T13:39:08.840Z,98381.36
2023-03-28T13:41:54.741Z,98382.45
2023-03-28T13:44:27.131Z,98380.82
2023-03-28T13:46:54.437Z,98385.71
2023-03-28T13:49:32.401Z,98395.34
2023-03-28T13:52:16.351Z,98394.91
2023-03-28T13:54:45.558Z,98404.98
2023-03-28T13:57:15.164Z,98421.43
2023-03-28T13:59:58.058Z,98423.27
2023-03-28T14:02:38.045Z,98429.52
2023-03-28T14:05:11.482Z,98433.99
2023-03-28T14:07:39.416Z,98441.81
2023-03-28T14:10:28.507Z,98451.54
2023-03-28T14:13:01.927Z,98454.96
2023-03-28T14:15:30.946Z,98456.31
2023-03-28T14:17:58.124Z,98448.33
2023-03-28T14:20:25.866Z,98449.95
2023-03-28T14:23:00.422Z,98457.85
2023-03-28T14:25:31.570Z,98469.38
2023-03-28T14:28:10.705Z,98466.64
2023-03-28T14:30:39.148Z,98472.37
2023-03-28T14:33:10.869Z,98475.23
2023-03-28T14:35:47.887Z,98475.45
2023-03-28T14:38:27.590Z,98480.02
2023-03-28T14:40:54.782Z,98485.55
2023-03-28T14:43:27.631Z,98492.84
2023-03-28T14:45:55.807Z,98490.63
2023-03-28T14:48:28.572Z,98496.20
2023-03-28T14:50:55.963Z,98504.06
2023-03-28T14:53:24.897Z,98510.34
2023-03-28T14:55:54.035Z,98513.85
2023-03-28T14:58:22.191Z,98516.38
2023-03-28T15:00:57.815Z,98539.89
2023-03-28T15:03:31.859Z,98541.54
2023-03-28T15:06:00.248Z,98550.92
2023-03-28T15:08:33.799Z,98552.83
2023-03-28T15:11:07.388Z,98550.55
2023-03-28T15:13:44.957Z,98558.39
2023-03-28T15:16:17.088Z,98568.39
2023-03-28T15:19:14.219Z,98577.62
2023-03-28T15:21:43.372Z,98578.48
2023-03-28T15:24:12.107Z,98588.41
2023-03-28T15:26:44.645Z,98589.61
2023-03-28T15:29:14.343Z,98602.02
2023-03-28T15:31:42.268Z,98597.05
2023-03-28T15:34:21.752Z,98605.02
2023-03-28T15:36:55.548Z,98614.73
2023-03-28T15:39:37.223Z,98621.37
2023-03-28T15:42:34.110Z,98624.42
2023-03-28T15:45:01.029Z,98638.19
2023-03-28T15:47:31.614Z,98641.54
2023-03-28T15:50:03.256Z,98647.54
2023-03-28T15:52:31.840Z,98651.95
2023-03-28T15:55:00.587Z,98656.45
2023-03-28T15:57:30.049Z,98659.52
2023-03-28T15:59:58.222Z,98664.38
2023-03-28T16:02:25.215Z,98663.17
2023-03-28T16:05:18.715Z,98670.47
2023-03-28T16:07:50.101Z,98672.94
2023-03-28T16:10:20.612Z,98680.85
2023-03-28T16:13:17.280Z,98687.35
2023-03-28T16:15:56.726Z,98704.63
2023-03-28T16:18:35.433Z,98704.50
2023-03-28T16:21:03.935Z,98711.05
2023-03-28T16:23:30.949Z,98717.54
2023-03-28T16:25:57.889Z,98722.25
2023-03-28T16:28:25.374Z,98732.70
2023-03-28T16:30:53.174Z,98733.69
2023-03-28T16:33:21.057Z,98742.80
2023-03-28T16:35:47.880Z,98744.42
2023-03-28T16:38:15.044Z,98744.30
2023-03-28T16:40:42.514Z,98743.95
2023-03-28T16:43:10.757Z,98754.55
2023-03-28T16:45:38.766Z,98774.21
2023-03-28T16:48:06.649Z,98768.96
2023-03-28T16:50:34.714Z,98768.50
2023-03-28T16:53:01.772Z,98770.20
2023-03-28T16:55:32.521Z,98776.33
2023-03-28T16:57:59.879Z,98783.20
2023-03-28T17:00:36.939Z,98789.31
2023-03-28T17:03:04.829Z,98789.81
2023-03-28T17:05:32.078Z,98794.97
2023-03-28T17:07:59.155Z,98798.52
2023-03-28T17:10:28.925Z,98801.21
2023-03-28T17:12:56.898Z,98805.23
2023-03-28T17:15:31.454Z,98816.16
2023-03-28T17:17:58.904Z,98830.91
2023-03-28T17:20:26.017Z,98837.18
2023-03-28T17:22:55.138Z,98840.70
2023-03-28T17:25:22.169Z,98847.97
2023-03-28T17:27:54.013Z,98844.17
2023-03-28T17:30:21.051Z,98843.45
2023-03-28T17:32:53.814Z,98855.63
2023-03-28T17:35:21.029Z,98860.10
2023-03-28T17:37:52.337Z,98863.86
2023-03-28T17:40:19.528Z,98864.54
2023-03-28T17:42:46.475Z,98884.07
2023-03-28T17:45:14.648Z,98884.38
2023-03-28T17:47:42.369Z,98877.09
2023-03-28T17:50:12.334Z,98887.84
2023-03-28T17:52:39.447Z,98876.21
2023-03-28T17:55:06.573Z,98893.13
2023-03-28T17:57:33.481Z,98884.30
2023-03-28T18:00:01.702Z,98887.58
2023-03-28T18:02:29.676Z,98890.57
2023-03-28T18:05:08.965Z,98892.55
2023-03-28T18:07:36.768Z,98879.89
2023-03-28T18:10:08.802Z,98887.48
2023-03-28T18:12:36.595Z,98888.77
2023-03-28T18:15:07.682Z,98895.95
2023-03-28T18:17:35.111Z,98893.56
2023-03-28T18:20:02.824Z,98887.25
2023-03-28T18:22:30.019Z,98899.11
2023-03-28T18:24:57.210Z,98895.05
2023-03-28T18:27:24.116Z,98909.95
2023-03-28T18:29:52.582Z,98908.02
2023-03-28T18:32:20.191Z,98926.11
2023-03-28T18:34:47.581Z,98935.79
2023-03-28T18:37:16.024Z,98937.61
2023-03-28T18:39:44.756Z,98930.73
2023-03-28T18:42:11.675Z,98940.84
2023-03-28T18:44:40.408Z,98941.09
2023-03-28T18:47:07.417Z,98951.73
2023-03-28T18:49:36.283Z,98973.27
2023-03-28T18:52:06.385Z,98980.80
2023-03-28T18:54:33.871Z,98970.97
2023-03-28T18:57:01.078Z,98984.02
2023-03-28T18:59:28.026Z,98985.98
2023-03-28T19:01:55.355Z,98998.09
2023-03-28T19:04:23.182Z,98976.12
2023-03-28T19:06:52.072Z,98985.02
2023-03-28T19:09:19.341Z,98992.73
2023-03-28T19:24:07.823Z,98988.28
2023-03-28T19:26:38.079Z,98979.45
2023-03-28T19:29:06.197Z,99009.11
2023-03-28T19:31:34.379Z,98995.02
2023-03-28T19:34:02.656Z,99012.64
2023-03-28T19:36:42.920Z,99011.16
2023-03-28T19:39:11.509Z,99021.02
2023-03-28T19:41:42.422Z,99014.64
2023-03-28T19:44:10.887Z,99036.39
2023-03-28T19:46:39.278Z,99034.24
2023-03-28T19:49:08.303Z,99046.86
2023-03-28T19:51:37.004Z,99046.21
2023-03-28T19:54:06.684Z,99042.85
2023-03-28T19:56:37.508Z,99057.40
2023-03-28T19:59:06.725Z,99061.61
2023-03-28T20:01:39.444Z,99060.30
2023-03-28T20:04:09.768Z,99069.94
2023-03-28T20:06:38.315Z,99076.46
2023-03-28T20:09:06.448Z,99100.02
2023-03-28T20:11:38.417Z,99073.55
2023-03-28T20:14:06.654Z,99086.78
2023-03-28T20:16:38.630Z,99099.11
2023-03-28T20:19:07.483Z,99093.39
2023-03-28T20:21:35.680Z,99095.23
2023-03-28T20:24:04.493Z,99099.60
2023-03-28T20:26:33.245Z,99112.83
2023-03-28T20:29:10.619Z,99109.35
2023-03-28T20:31:40.369Z,99111.94
2023-03-28T20:34:08.795Z,99107.81
2023-03-28T20:36:42.456Z,99110.71
2023-03-28T20:39:10.781Z,99110.96
2023-03-28T20:41:40.289Z,99123.75
2023-03-28T20:44:20.244Z,99138.87
2023-03-28T20:46:49.077Z,99140.29
2023-03-28T20:49:22.764Z,99159.30
2023-03-28T20:51:51.788Z,99142.92
2023-03-28T20:54:22.007Z,99145.62
2023-03-28T20:56:56.067Z,99160.28
2023-03-28T20:59:27.453Z,99169.45
2023-03-28T21:01:55.947Z,99160.69
2023-03-28T21:04:24.534Z,99160.79
2023-03-28T21:06:52.905Z,99179.32
2023-03-28T21:09:21.999Z,99183.85
2023-03-28T21:11:55.643Z,99194.91
2023-03-28T21:14:29.784Z,99206.32
2023-03-28T21:17:01.273Z,99199.09
2023-03-28T21:19:30.464Z,99207.47
2023-03-28T21:22:01.956Z,99205.52
2023-03-28T21:24:31.029Z,99222.38
2023-03-28T21:26:59.211Z,99223.52
2023-03-28T21:29:27.918Z,99214.88
2023-03-28T21:31:56.232Z,99227.98
2023-03-28T21:34:30.817Z,99223.14
2023-03-28T21:36:59.406Z,99223.63
2023-03-28T21:39:28.038Z,99224.27
2023-03-28T21:42:00.647Z,99222.95
2023-03-28T21:44:31.346Z,99220.79
2023-03-28T21:46:59.849Z,99211.39
2023-03-28T21:49:30.776Z,99214.24
2023-03-28T21:52:01.654Z,99236.52
2023-03-28T21:54:35.205Z,99231.52
2023-03-28T21:57:03.776Z,99228.02
2023-03-28T21:59:32.088Z,99226.63
2023-03-28T22:02:01.820Z,99236.96
2023-03-28T22:04:33.110Z,99237.75
2023-03-28T22:07:01.338Z,99265.06
2023-03-28T22:09:29.693Z,99258.49
2023-03-28T22:11:57.880Z,99264.25
2023-03-28T22:14:26.706Z,99263.80
2023-03-28T22:16:55.473Z,99254.44
2023-03-28T22:19:32.589Z,99271.79
2023-03-28T22:22:02.200Z,99271.51
2023-03-28T22:24:31.052Z,99274.19
2023-03-28T22:27:02.743Z,99286.05
2023-03-28T22:29:33.154Z,99281.54
2023-03-28T22:32:01.994Z,99290.15
2023-03-28T22:34:30.776Z,99293.09
2023-03-28T22:36:58.954Z,99291.58
2023-03-28T22:39:28.518Z,99291.13
2023-03-28T22:41:57.550Z,99292.40
2023-03-28T22:44:27.463Z,99291.97
2023-03-28T22:47:02.353Z,99290.89
2023-03-28T22:49:32.505Z,99292.10
2023-03-28T22:52:09.803Z,99292.02
2023-03-28T22:54:38.858Z,99297.77
2023-03-28T22:57:07.643Z,99295.05
2023-03-28T22:59:37.125Z,99294.58
2023-03-28T23:02:06.360Z,99301.28
2023-03-28T23:04:40.443Z,99309.41
2023-03-28T23:07:09.377Z,99303.96
2023-03-28T23:09:37.628Z,99316.33
2023-03-28T23:12:06.476Z,99335.16
2023-03-28T23:14:35.833Z,99317.36
2023-03-28T23:17:04.698Z,99322.34
2023-03-28T23:19:33.048Z,99315.34
2023-03-28T23:22:02.802Z,99318.52
2023-03-28T23:24:37.367Z,99326.94
2023-03-28T23:27:07.421Z,99330.10
2023-03-28T23:29:36.607Z,99321.42
2023-03-28T23:32:05.421Z,99327.20
2023-03-28T23:34:35.147Z,99332.11
2023-03-28T23:37:05.001Z,99320.83
2023-03-28T23:39:34.171Z,99328.13
2023-03-28T23:42:02.763Z,99334.71
2023-03-28T23:44:31.657Z,99338.12
2023-03-28T23:47:04.130Z,99334.64
2023-03-28T23:49:37.820Z,99339.55
2023-03-28T23:52:06.261Z,99335.09
2023-03-28T23:54:35.018Z,99345.02
2023-03-28T23:57:03.868Z,99343.79
2023-03-28T23:59:32.953Z,99347.03
